Time;durP1;ratioP1;P1;durP2;ratioP2;P2;SDS_P1;SDS_P2;PMS_P1;PMS_P2;Temp;Humidity;BMP_temperature;BMP_pressure;BME280_temperature;BME280_humidity;BME280_pressure;Samples;Min_cycle;Max_cycle;Signal;HPM_P1;HPM_P2
2022/03/16 00:02:20;;;;;;;0.20;0.20;;;9.40;99.90;;;;;;5014467;28;20034;-73
2022/03/16 00:04:53;;;;;;;0.20;0.20;;;9.40;99.90;;;;;;5014401;28;20108;-72
2022/03/16 00:07:21;;;;;;;0.55;0.55;;;9.40;99.90;;;;;;5014269;28;20033;-72
2022/03/16 00:09:47;;;;;;;0.10;0.10;;;9.40;99.90;;;;;;5014540;28;20358;-73
2022/03/16 00:12:13;;;;;;;0.20;0.20;;;9.50;99.90;;;;;;5014418;28;20034;-72
2022/03/16 00:14:40;;;;;;;0.20;0.20;;;9.50;99.90;;;;;;5014346;28;20033;-72
2022/03/16 00:17:06;;;;;;;0.20;0.20;;;9.70;99.90;;;;;;5014124;28;20026;-70
2022/03/16 00:19:33;;;;;;;0.10;0.10;;;9.70;99.90;;;;;;5014245;28;20496;-73
2022/03/16 00:22:00;;;;;;;0.20;0.20;;;9.80;99.90;;;;;;5014102;28;20057;-72
2022/03/16 00:24:26;;;;;;;0.30;0.30;;;9.80;99.90;;;;;;5012842;28;20463;-73
2022/03/16 00:26:52;;;;;;;0.10;0.10;;;9.70;99.90;;;;;;5014010;28;20100;-72
2022/03/16 00:29:18;;;;;;;0.20;0.20;;;9.80;99.90;;;;;;5014091;28;20497;-72
2022/03/16 00:31:44;;;;;;;3.03;0.65;;;9.90;99.90;;;;;;5012764;28;20026;-72
2022/03/16 00:34:10;;;;;;;1.77;1.70;;;9.90;99.90;;;;;;5013381;28;20026;-72
2022/03/16 00:36:35;;;;;;;0.20;0.20;;;9.80;99.90;;;;;;5013784;28;20018;-72
2022/03/16 00:39:02;;;;;;;0.13;0.13;;;9.90;99.90;;;;;;5013785;28;20382;-72
2022/03/16 00:41:28;;;;;;;0.20;0.20;;;10.00;99.90;;;;;;5013931;28;20061;-72
2022/03/16 00:43:54;;;;;;;0.20;0.20;;;10.00;99.90;;;;;;5013674;28;20057;-73
2022/03/16 00:46:20;;;;;;;0.30;0.30;;;10.00;99.90;;;;;;5013675;28;20022;-73
2022/03/16 00:48:46;;;;;;;0.20;0.20;;;9.90;99.90;;;;;;5013792;28;20029;-72
2022/03/16 00:51:12;;;;;;;0.20;0.20;;;9.90;99.90;;;;;;5013629;28;20024;-73
2022/03/16 00:53:39;;;;;;;0.20;0.20;;;9.80;99.90;;;;;;5013685;28;20026;-72
2022/03/16 00:56:07;;;;;;;0.20;0.20;;;9.80;99.90;;;;;;5013353;28;20026;-72
2022/03/16 00:58:33;;;;;;;0.10;0.10;;;9.80;99.90;;;;;;5013548;28;20025;-72
2022/03/16 01:00:59;;;;;;;0.20;0.20;;;9.90;99.90;;;;;;5013463;28;20033;-72
2022/03/16 01:03:25;;;;;;;0.10;0.10;;;9.90;99.90;;;;;;5013371;28;20109;-72
2022/03/16 01:05:51;;;;;;;0.10;0.10;;;10.00;99.90;;;;;;5013273;28;20080;-72
2022/03/16 01:08:17;;;;;;;0.13;0.13;;;10.10;99.90;;;;;;4996187;28;20425;-75
2022/03/16 01:10:43;;;;;;;0.20;0.20;;;10.20;99.90;;;;;;5012740;28;20030;-74
2022/03/16 01:13:09;;;;;;;0.10;0.10;;;10.10;99.90;;;;;;5014750;28;20508;-76
2022/03/16 01:15:35;;;;;;;0.20;0.20;;;10.10;99.90;;;;;;5014331;28;20027;-76
2022/03/16 01:18:01;;;;;;;0.20;0.20;;;10.00;99.90;;;;;;5013341;28;20036;-76
2022/03/16 01:20:27;;;;;;;1.02;0.55;;;9.90;99.90;;;;;;5013080;28;20404;-76
2022/03/16 01:22:53;;;;;;;0.20;0.20;;;9.80;99.90;;;;;;4996729;28;20030;-76
2022/03/16 01:25:19;;;;;;;0.20;0.20;;;9.80;99.90;;;;;;4996773;28;20370;-76
2022/03/16 01:27:44;;;;;;;0.20;0.20;;;9.80;99.90;;;;;;5013919;28;20092;-77
2022/03/16 01:30:13;;;;;;;0.20;0.20;;;9.80;99.90;;;;;;5012952;28;20026;-76
2022/03/16 01:32:39;;;;;;;0.20;0.20;;;9.90;99.90;;;;;;5014086;28;20042;-76
2022/03/16 01:35:06;;;;;;;0.20;0.20;;;10.00;99.90;;;;;;5014001;28;20034;-76
2022/03/16 01:37:32;;;;;;;0.15;0.15;;;10.10;99.90;;;;;;5013779;28;20040;-76
2022/03/16 01:39:58;;;;;;;0.20;0.20;;;10.10;99.90;;;;;;5012505;28;20470;-76
2022/03/16 01:42:25;;;;;;;0.10;0.10;;;10.10;99.90;;;;;;5014093;28;20054;-76
2022/03/16 01:44:53;;;;;;;0.10;0.10;;;10.20;99.90;;;;;;5014113;28;20042;-76
2022/03/16 01:47:20;;;;;;;0.10;0.10;;;10.30;99.90;;;;;;5011596;28;20022;-76
2022/03/16 01:49:47;;;;;;;0.10;0.10;;;10.20;99.90;;;;;;5012621;28;20033;-76
2022/03/16 01:52:21;;;;;;;0.20;0.20;;;10.20;99.90;;;;;;5013408;28;20018;-76
2022/03/16 01:54:48;;;;;;;0.20;0.20;;;10.10;99.90;;;;;;5013582;28;20462;-76
2022/03/16 01:57:15;;;;;;;0.10;0.10;;;10.10;99.90;;;;;;5013407;28;20025;-76
2022/03/16 01:59:41;;;;;;;0.10;0.10;;;10.10;99.90;;;;;;5012473;28;20018;-77
2022/03/16 02:02:08;;;;;;;0.25;0.25;;;10.00;99.90;;;;;;5013496;28;20025;-76
2022/03/16 02:04:34;;;;;;;2.28;2.17;;;10.00;99.90;;;;;;5013326;28;20517;-77
2022/03/16 02:07:00;;;;;;;0.32;0.32;;;10.00;99.90;;;;;;5013118;28;20026;-76
2022/03/16 02:09:26;;;;;;;0.20;0.20;;;9.90;99.90;;;;;;5012525;28;20096;-76
2022/03/16 02:11:52;;;;;;;0.17;0.17;;;9.60;99.90;;;;;;5012147;28;20018;-76
2022/03/16 02:14:18;;;;;;;0.20;0.20;;;9.40;99.90;;;;;;4995607;28;20048;-76
2022/03/16 02:16:45;;;;;;;0.30;0.30;;;9.40;99.90;;;;;;5013114;28;20026;-76
2022/03/16 02:19:11;;;;;;;0.40;0.40;;;9.30;99.90;;;;;;5013171;28;20021;-75
2022/03/16 02:21:38;;;;;;;0.20;0.20;;;9.30;99.90;;;;;;5012112;28;20080;-76
2022/03/16 02:24:07;;;;;;;0.20;0.20;;;9.30;99.90;;;;;;5011863;28;20026;-76
2022/03/16 02:26:34;;;;;;;0.10;0.10;;;9.50;99.90;;;;;;5011876;28;20477;-76
2022/03/16 02:29:00;;;;;;;0.20;0.20;;;9.60;99.90;;;;;;5013045;28;20030;-76
2022/03/16 02:31:27;;;;;;;0.20;0.20;;;9.70;99.90;;;;;;5011926;28;20118;-76
2022/03/16 02:33:53;;;;;;;0.20;0.20;;;9.70;99.90;;;;;;5013213;28;20084;-76
2022/03/16 02:36:19;;;;;;;0.20;0.20;;;9.70;99.90;;;;;;5013038;28;20053;-76
2022/03/16 02:38:45;;;;;;;0.10;0.10;;;9.70;99.90;;;;;;5013435;28;20714;-76
2022/03/16 02:41:11;;;;;;;0.22;0.22;;;9.60;99.90;;;;;;5012008;28;20026;-76
2022/03/16 02:43:37;;;;;;;0.30;0.30;;;9.60;99.90;;;;;;5013122;28;20390;-76
2022/03/16 02:46:03;;;;;;;0.50;0.50;;;9.60;99.90;;;;;;5011520;28;20022;-76
2022/03/16 02:48:29;;;;;;;0.20;0.20;;;9.50;99.90;;;;;;5013117;28;20034;-76
2022/03/16 02:50:55;;;;;;;0.20;0.20;;;9.30;99.90;;;;;;5013099;28;20148;-76
2022/03/16 02:53:21;;;;;;;0.40;0.40;;;9.30;99.90;;;;;;5011729;28;20026;-76
2022/03/16 02:55:47;;;;;;;0.80;0.80;;;9.20;99.90;;;;;;5012784;28;20062;-76
2022/03/16 02:58:15;;;;;;;0.20;0.20;;;9.10;99.90;;;;;;5014502;28;20033;-76
2022/03/16 03:00:41;;;;;;;0.30;0.30;;;9.10;99.90;;;;;;5016696;28;20032;-76
2022/03/16 03:03:07;;;;;;;0.30;0.30;;;9.10;99.90;;;;;;5015217;28;20129;-76
2022/03/16 03:05:33;;;;;;;0.10;0.10;;;9.00;99.90;;;;;;5015200;28;20045;-77
2022/03/16 03:08:02;;;;;;;0.20;0.20;;;9.10;99.90;;;;;;5016452;28;20026;-76
2022/03/16 03:10:28;;;;;;;0.20;0.20;;;9.10;99.90;;;;;;5016474;28;20026;-76
2022/03/16 03:12:54;;;;;;;0.20;0.20;;;9.20;99.90;;;;;;5015401;28;20382;-76
2022/03/16 03:15:20;;;;;;;0.77;0.77;;;9.10;99.90;;;;;;5016233;28;20048;-77
2022/03/16 03:17:46;;;;;;;0.30;0.30;;;9.20;99.90;;;;;;5016170;28;20109;-76
2022/03/16 03:20:13;;;;;;;0.17;0.17;;;9.30;99.90;;;;;;5015200;28;20029;-76
2022/03/16 03:22:42;;;;;;;0.10;0.10;;;9.30;99.90;;;;;;5015285;28;20548;-76
2022/03/16 03:25:13;;;;;;;1.02;0.45;;;9.40;99.90;;;;;;4998625;28;20018;-77
2022/03/16 03:27:39;;;;;;;0.98;0.98;;;9.40;99.90;;;;;;5015170;28;20030;-76
2022/03/16 03:30:06;;;;;;;0.50;0.50;;;9.50;99.90;;;;;;5015036;28;20037;-76
2022/03/16 03:32:32;;;;;;;0.17;0.17;;;9.40;99.90;;;;;;5016146;28;20030;-76
2022/03/16 03:34:58;;;;;;;0.20;0.20;;;9.40;99.90;;;;;;5015008;28;20112;-76
2022/03/16 03:37:30;;;;;;;0.20;0.20;;;9.50;99.90;;;;;;5014806;28;20145;-76
2022/03/16 03:39:56;;;;;;;0.20;0.20;;;9.50;99.90;;;;;;5016005;28;20036;-76
2022/03/16 03:42:22;;;;;;;0.15;0.15;;;9.50;99.90;;;;;;5016005;28;20145;-75
2022/03/16 03:44:48;;;;;;;0.10;0.10;;;9.60;99.90;;;;;;5014769;28;20042;-77
2022/03/16 03:47:14;;;;;;;0.20;0.20;;;9.60;99.90;;;;;;5015862;28;20032;-77
2022/03/16 03:49:42;;;;;;;0.30;0.30;;;9.70;99.90;;;;;;5016316;28;20044;-76
2022/03/16 03:52:08;;;;;;;0.30;0.30;;;9.70;99.90;;;;;;5016063;28;20022;-77
2022/03/16 03:54:34;;;;;;;0.10;0.10;;;9.60;99.90;;;;;;4998231;28;20080;-76
2022/03/16 03:57:00;;;;;;;0.47;0.47;;;9.60;99.90;;;;;;5015459;28;20018;-77
2022/03/16 03:59:26;;;;;;;0.40;0.40;;;9.70;99.90;;;;;;5016362;28;20022;-74
2022/03/16 04:01:52;;;;;;;0.38;0.38;;;9.60;99.90;;;;;;5040485;23;20116;-75
2022/03/16 04:04:18;;;;;;;0.10;0.10;;;9.70;99.90;;;;;;5034166;28;20539;-73
2022/03/16 04:06:44;;;;;;;0.10;0.10;;;9.70;99.90;;;;;;5034181;28;20026;-73
2022/03/16 04:09:10;;;;;;;0.40;0.40;;;9.80;99.90;;;;;;5033436;28;20030;-73
2022/03/16 04:11:36;;;;;;;0.20;0.20;;;9.80;99.90;;;;;;5034222;28;20117;-73
2022/03/16 04:14:03;;;;;;;0.20;0.20;;;9.90;99.90;;;;;;5034171;28;20033;-73
2022/03/16 04:16:29;;;;;;;0.20;0.20;;;9.90;99.90;;;;;;5033940;28;20108;-73
2022/03/16 04:18:54;;;;;;;0.20;0.20;;;10.00;99.90;;;;;;5032835;28;20109;-72
2022/03/16 04:21:21;;;;;;;0.10;0.10;;;10.00;99.90;;;;;;5032744;28;20033;-73
2022/03/16 04:23:46;;;;;;;3.60;3.42;;;10.00;99.90;;;;;;5033864;28;20029;-73
2022/03/16 04:26:12;;;;;;;0.10;0.10;;;9.90;99.90;;;;;;5033827;28;20393;-73
2022/03/16 04:28:38;;;;;;;0.25;0.25;;;9.90;99.90;;;;;;5033920;28;20061;-73
2022/03/16 04:31:04;;;;;;;0.10;0.10;;;10.00;99.90;;;;;;5033825;28;20551;-73
2022/03/16 04:33:30;;;;;;;0.57;0.57;;;10.00;99.90;;;;;;5033759;28;20029;-73
2022/03/16 04:35:55;;;;;;;0.13;0.13;;;9.90;99.90;;;;;;5033607;28;20078;-73
2022/03/16 04:38:22;;;;;;;0.20;0.20;;;9.90;99.90;;;;;;5032153;28;20026;-73
2022/03/16 04:40:48;;;;;;;0.20;0.20;;;9.80;99.90;;;;;;5033734;28;20026;-73
2022/03/16 04:43:13;;;;;;;0.20;0.20;;;9.80;99.90;;;;;;5033524;28;20079;-73
2022/03/16 04:45:40;;;;;;;0.20;0.20;;;9.90;99.90;;;;;;5033324;28;20022;-73
2022/03/16 04:48:08;;;;;;;0.20;0.20;;;9.90;99.90;;;;;;5033465;28;20104;-73
2022/03/16 04:50:34;;;;;;;0.17;0.17;;;9.80;99.90;;;;;;5033659;28;20562;-71
2022/03/16 04:53:00;;;;;;;0.25;0.25;;;9.90;99.90;;;;;;5032177;28;20095;-71
2022/03/16 04:55:26;;;;;;;0.20;0.20;;;9.80;99.90;;;;;;5033286;28;20038;-72
2022/03/16 04:57:52;;;;;;;0.20;0.20;;;9.60;99.90;;;;;;5032008;28;20091;-71
2022/03/16 05:00:18;;;;;;;0.10;0.10;;;9.70;99.90;;;;;;5033125;28;20037;-71
2022/03/16 05:02:44;;;;;;;1.70;1.65;;;9.70;99.90;;;;;;5032965;28;20030;-71
2022/03/16 05:05:10;;;;;;;5.28;3.00;;;9.70;99.90;;;;;;5033098;28;20025;-71
2022/03/16 05:07:37;;;;;;;0.20;0.20;;;9.50;99.90;;;;;;5033003;28;20017;-71
2022/03/16 05:10:05;;;;;;;0.20;0.20;;;9.50;99.90;;;;;;5033125;28;20492;-71
2022/03/16 05:12:42;;;;;;;0.20;0.20;;;9.60;99.90;;;;;;5033006;28;20033;-72
2022/03/16 05:15:12;;;;;;;0.75;0.75;;;9.60;99.90;;;;;;5032855;28;20105;-71
2022/03/16 05:17:38;;;;;;;2.22;2.08;;;9.70;99.90;;;;;;5032777;28;20116;-72
2022/03/16 05:20:05;;;;;;;0.20;0.20;;;9.70;99.90;;;;;;5033166;28;20469;-71
2022/03/16 05:22:31;;;;;;;0.20;0.20;;;9.60;99.90;;;;;;5032822;28;20316;-72
2022/03/16 05:24:57;;;;;;;0.20;0.20;;;9.50;99.90;;;;;;5032804;28;20025;-72
2022/03/16 05:27:23;;;;;;;5.57;2.70;;;9.50;99.90;;;;;;5032529;28;20051;-71
2022/03/16 05:29:49;;;;;;;0.70;0.70;;;9.60;99.90;;;;;;5028214;22;20048;-75
2022/03/16 05:32:15;;;;;;;0.20;0.20;;;9.40;99.90;;;;;;5013031;28;20026;-76
2022/03/16 05:34:41;;;;;;;0.57;0.57;;;9.20;99.90;;;;;;5012979;28;20113;-76
2022/03/16 05:37:07;;;;;;;0.98;0.70;;;9.20;99.90;;;;;;5012997;28;20102;-76
2022/03/16 05:39:32;;;;;;;0.17;0.17;;;9.00;99.90;;;;;;5027738;28;20104;-76
2022/03/16 05:42:00;;;;;;;0.80;0.57;;;8.90;99.90;;;;;;5012818;28;20425;-75
2022/03/16 05:44:26;;;;;;;0.10;0.10;;;8.80;99.90;;;;;;5011329;28;20057;-75
2022/03/16 05:46:54;;;;;;;1.40;0.65;;;8.60;99.90;;;;;;5012690;28;20018;-75
2022/03/16 05:49:20;;;;;;;2.40;2.13;;;8.60;99.90;;;;;;5012707;28;20024;-75
2022/03/16 05:51:46;;;;;;;0.10;0.10;;;8.50;99.90;;;;;;5027884;28;20446;-75
2022/03/16 05:54:11;;;;;;;0.10;0.10;;;8.50;99.90;;;;;;5012648;28;20054;-76
2022/03/16 05:56:37;;;;;;;0.65;0.40;;;8.60;99.90;;;;;;5012378;28;20036;-75
2022/03/16 05:59:03;;;;;;;0.98;0.98;;;8.60;99.90;;;;;;5012586;28;20025;-76
2022/03/16 06:01:28;;;;;;;0.20;0.20;;;8.60;99.90;;;;;;5011341;28;20393;-75
2022/03/16 06:03:54;;;;;;;2.47;2.28;;;8.50;99.90;;;;;;5012550;28;20026;-76
2022/03/16 06:06:20;;;;;;;0.10;0.10;;;8.50;99.90;;;;;;5012356;28;20132;-76
2022/03/16 06:08:46;;;;;;;0.40;0.40;;;8.50;99.90;;;;;;5012437;28;20026;-75
2022/03/16 06:11:11;;;;;;;0.10;0.10;;;8.40;99.90;;;;;;5012503;28;20109;-75
2022/03/16 06:13:37;;;;;;;2.83;1.30;;;8.40;99.90;;;;;;5011071;28;20030;-76
2022/03/16 06:16:03;;;;;;;0.20;0.20;;;8.40;99.90;;;;;;5012170;28;20026;-76
2022/03/16 06:18:29;;;;;;;1.30;1.27;;;8.30;99.90;;;;;;5010043;28;20496;-75
2022/03/16 06:20:55;;;;;;;1.65;1.10;;;8.20;99.90;;;;;;5011184;28;20014;-76
2022/03/16 06:23:20;;;;;;;0.55;0.55;;;8.10;99.90;;;;;;5010939;28;20022;-75
2022/03/16 06:25:46;;;;;;;0.52;0.52;;;8.10;99.90;;;;;;5011886;28;20018;-76
2022/03/16 06:28:12;;;;;;;0.10;0.10;;;8.00;99.90;;;;;;5012058;28;20022;-76
2022/03/16 06:30:38;;;;;;;3.42;1.73;;;8.00;99.90;;;;;;5010877;28;20029;-75
2022/03/16 06:33:04;;;;;;;14.25;1.38;;;7.80;99.90;;;;;;5013471;28;20025;-75
2022/03/16 06:35:30;;;;;;;0.32;0.32;;;7.60;99.90;;;;;;4998487;28;20113;-77
2022/03/16 06:37:56;;;;;;;0.10;0.10;;;7.60;99.90;;;;;;4998136;28;20104;-76
2022/03/16 06:40:21;;;;;;;1.55;1.38;;;7.60;99.90;;;;;;5016166;28;20034;-76
2022/03/16 06:42:55;;;;;;;0.25;0.25;;;7.60;99.90;;;;;;4998318;28;20030;-75
2022/03/16 06:45:22;;;;;;;0.20;0.20;;;7.50;99.90;;;;;;5016073;28;20389;-75
2022/03/16 06:47:48;;;;;;;0.10;0.10;;;7.50;99.90;;;;;;5013869;28;20018;-76
2022/03/16 06:50:14;;;;;;;1.25;0.95;;;7.50;99.90;;;;;;5015557;28;20540;-75
2022/03/16 06:52:40;;;;;;;8.93;2.80;;;7.40;99.90;;;;;;5015342;28;20474;-75
2022/03/16 06:55:10;;;;;;;0.22;0.22;;;7.20;99.90;;;;;;5014771;28;20036;-75
2022/03/16 06:57:36;;;;;;;4.93;2.75;;;7.20;99.90;;;;;;5014779;28;20114;-75
2022/03/16 07:00:04;;;;;;;0.50;0.50;;;7.40;99.90;;;;;;5015978;28;20033;-75
2022/03/16 07:02:30;;;;;;;0.43;0.43;;;7.20;99.90;;;;;;5013465;28;20022;-75
2022/03/16 07:04:56;;;;;;;6.32;3.13;;;7.20;99.90;;;;;;5015364;28;20030;-75
2022/03/16 07:07:26;;;;;;;0.20;0.20;;;7.00;99.90;;;;;;5013614;28;20030;-75
2022/03/16 07:09:52;;;;;;;0.20;0.20;;;6.90;99.90;;;;;;5015386;28;20386;-76
2022/03/16 07:12:18;;;;;;;8.43;2.15;;;7.10;99.90;;;;;;5013941;28;20026;-75
2022/03/16 07:14:44;;;;;;;0.40;0.40;;;7.20;99.90;;;;;;5014076;28;20045;-75
2022/03/16 07:17:10;;;;;;;1.75;1.63;;;7.10;99.90;;;;;;5013745;28;20022;-75
2022/03/16 07:19:36;;;;;;;0.93;0.93;;;7.20;99.90;;;;;;5015260;28;20038;-75
2022/03/16 07:22:02;;;;;;;0.75;0.75;;;7.20;99.90;;;;;;5013102;28;20465;-75
2022/03/16 07:24:27;;;;;;;0.20;0.20;;;7.10;99.90;;;;;;5013937;28;20112;-75
2022/03/16 07:26:54;;;;;;;5.15;3.47;;;7.20;99.90;;;;;;5009998;28;20022;-75
2022/03/16 07:29:21;;;;;;;6.85;3.00;;;7.10;99.90;;;;;;5007709;28;20365;-75
2022/03/16 07:31:46;;;;;;;2.92;1.27;;;6.90;99.90;;;;;;5015002;28;20576;-77
2022/03/16 07:34:13;;;;;;;1.13;1.10;;;6.90;99.90;;;;;;5015069;28;20022;-75
2022/03/16 07:36:39;;;;;;;1.80;1.70;;;6.90;99.90;;;;;;5014909;28;20425;-75
2022/03/16 07:39:04;;;;;;;2.40;2.20;;;7.00;99.90;;;;;;5014039;28;20109;-74
2022/03/16 07:41:30;;;;;;;1.65;1.40;;;6.90;99.90;;;;;;4995745;28;20077;-74
2022/03/16 07:43:56;;;;;;;5.05;0.75;;;6.90;99.90;;;;;;5012777;28;20045;-74
2022/03/16 07:46:22;;;;;;;1.98;1.65;;;6.90;99.90;;;;;;5012862;28;20033;-74
2022/03/16 07:48:47;;;;;;;0.30;0.30;;;6.90;99.90;;;;;;5014327;28;20397;-74
2022/03/16 07:51:13;;;;;;;0.20;0.20;;;6.90;99.90;;;;;;5029808;28;20021;-75
2022/03/16 07:53:39;;;;;;;4.65;1.50;;;7.00;99.90;;;;;;5013185;28;20032;-74
2022/03/16 07:56:05;;;;;;;0.85;0.73;;;6.90;99.90;;;;;;5013437;28;20422;-74
2022/03/16 07:58:30;;;;;;;0.47;0.47;;;6.80;99.90;;;;;;5013822;28;20060;-74
2022/03/16 08:00:56;;;;;;;2.75;1.52;;;6.80;99.90;;;;;;5014658;28;20026;-74
2022/03/16 08:03:22;;;;;;;0.20;0.20;;;6.80;99.90;;;;;;5012483;28;20033;-76
2022/03/16 08:05:48;;;;;;;2.28;0.52;;;6.80;99.90;;;;;;5013262;28;20021;-74
2022/03/16 08:08:14;;;;;;;0.73;0.73;;;6.90;99.90;;;;;;5013811;28;20390;-74
2022/03/16 08:10:40;;;;;;;1.65;1.27;;;6.80;99.90;;;;;;5013884;28;20026;-74
2022/03/16 08:13:06;;;;;;;0.43;0.40;;;6.80;99.90;;;;;;5013432;28;20049;-75
2022/03/16 08:15:33;;;;;;;0.65;0.65;;;7.00;99.90;;;;;;5012781;28;20394;-76
2022/03/16 08:17:58;;;;;;;2.30;1.33;;;7.00;99.90;;;;;;5012273;28;20030;-75
2022/03/16 08:20:24;;;;;;;0.20;0.20;;;7.10;99.90;;;;;;4995874;28;20037;-76
2022/03/16 08:22:56;;;;;;;0.10;0.10;;;7.00;99.90;;;;;;5013438;28;20026;-76
2022/03/16 08:25:22;;;;;;;2.03;1.85;;;7.00;99.90;;;;;;5014280;28;20026;-76
2022/03/16 08:27:48;;;;;;;3.50;3.20;;;7.10;99.90;;;;;;5013709;28;20026;-76
2022/03/16 08:30:15;;;;;;;0.20;0.20;;;7.00;99.90;;;;;;5005962;28;20419;-76
2022/03/16 08:32:42;;;;;;;0.47;0.47;;;7.10;99.90;;;;;;5003842;28;20552;-76
2022/03/16 08:35:08;;;;;;;0.40;0.40;;;7.20;99.90;;;;;;5003222;28;20037;-76
2022/03/16 08:37:35;;;;;;;4.25;2.22;;;7.20;99.90;;;;;;5003874;28;20036;-76
2022/03/16 08:40:01;;;;;;;0.47;0.47;;;7.20;99.90;;;;;;5003900;28;20040;-76
2022/03/16 08:42:27;;;;;;;0.73;0.73;;;7.00;99.90;;;;;;5005701;28;20030;-76
2022/03/16 08:44:53;;;;;;;3.95;3.58;;;7.20;99.90;;;;;;5003810;28;20529;-76
2022/03/16 08:47:20;;;;;;;0.88;0.88;;;7.20;99.90;;;;;;5004779;28;20062;-76
2022/03/16 08:49:48;;;;;;;0.20;0.20;;;7.20;99.90;;;;;;5004381;28;20030;-76
2022/03/16 08:52:14;;;;;;;6.03;1.38;;;7.10;99.90;;;;;;5004558;28;20057;-76
2022/03/16 08:54:40;;;;;;;0.68;0.68;;;7.10;99.90;;;;;;5004417;28;20041;-77
2022/03/16 08:57:09;;;;;;;0.63;0.50;;;7.10;99.90;;;;;;4987544;28;20639;-75
2022/03/16 08:59:38;;;;;;;1.08;0.95;;;7.10;99.90;;;;;;5004837;28;20018;-75
2022/03/16 09:02:05;;;;;;;0.30;0.30;;;7.00;99.90;;;;;;5003359;28;20018;-74
2022/03/16 09:04:30;;;;;;;1.52;1.42;;;7.10;99.90;;;;;;5000128;28;20044;-72
2022/03/16 09:06:58;;;;;;;1.33;1.23;;;7.20;99.90;;;;;;5001120;28;20038;-73
2022/03/16 09:09:25;;;;;;;1.65;1.55;;;7.30;99.90;;;;;;5000781;28;20032;-77
2022/03/16 09:11:51;;;;;;;2.38;1.35;;;7.20;99.90;;;;;;5002472;28;20081;-73
2022/03/16 09:14:17;;;;;;;0.75;0.75;;;7.30;99.90;;;;;;5001425;28;20840;-72
2022/03/16 09:16:45;;;;;;;0.30;0.30;;;7.30;99.90;;;;;;4999739;28;20094;-75
2022/03/16 09:19:15;;;;;;;2.72;2.50;;;7.30;99.90;;;;;;4983039;28;20025;-74
2022/03/16 09:21:45;;;;;;;2.17;1.15;;;7.30;99.90;;;;;;5000397;28;20140;-74
2022/03/16 09:24:11;;;;;;;0.30;0.30;;;7.30;99.90;;;;;;4999757;28;20041;-75
2022/03/16 09:26:37;;;;;;;4.15;1.48;;;7.30;99.90;;;;;;5002155;28;20021;-75
2022/03/16 09:29:02;;;;;;;1.08;1.08;;;7.40;99.90;;;;;;4999444;28;20389;-75
2022/03/16 09:31:28;;;;;;;0.22;0.22;;;7.30;99.90;;;;;;5001164;28;20034;-76
2022/03/16 09:33:56;;;;;;;1.27;1.15;;;7.30;99.90;;;;;;5000500;28;20038;-75
2022/03/16 09:36:21;;;;;;;0.95;0.88;;;7.20;99.90;;;;;;4984003;28;20034;-75
2022/03/16 09:38:47;;;;;;;11.32;5.32;;;7.20;99.90;;;;;;4984112;28;20030;-75
2022/03/16 09:41:13;;;;;;;2.97;2.78;;;7.10;99.90;;;;;;5000179;28;20079;-75
2022/03/16 09:43:43;;;;;;;1.45;1.30;;;7.00;99.90;;;;;;5001548;28;20037;-75
2022/03/16 09:46:12;;;;;;;4.18;0.55;;;7.10;99.90;;;;;;5001349;28;20472;-74
2022/03/16 09:48:39;;;;;;;1.00;1.00;;;7.10;99.90;;;;;;5001600;28;20048;-75
2022/03/16 09:51:07;;;;;;;1.10;1.10;;;7.10;99.90;;;;;;4999760;28;20072;-74
2022/03/16 09:53:33;;;;;;;0.13;0.13;;;7.10;99.90;;;;;;5000415;28;20034;-74
2022/03/16 09:55:59;;;;;;;0.73;0.73;;;7.10;99.90;;;;;;5002415;28;20508;-74
2022/03/16 09:58:25;;;;;;;1.30;1.25;;;7.10;99.90;;;;;;5001256;28;20058;-75
2022/03/16 10:00:53;;;;;;;2.83;2.58;;;7.10;99.90;;;;;;5001148;28;20048;-74
2022/03/16 10:03:25;;;;;;;0.77;0.77;;;7.10;99.90;;;;;;5000091;28;20044;-74
2022/03/16 10:05:51;;;;;;;0.20;0.20;;;7.00;99.90;;;;;;4999758;28;20033;-73
2022/03/16 10:08:32;;;;;;;0.60;0.60;;;7.10;99.90;;;;;;5000665;28;20048;-75
2022/03/16 10:13:48;;;;;;;1.73;1.25;;;7.30;99.90;;;;;;5000222;28;20026;-75
2022/03/16 10:16:14;;;;;;;2.55;2.35;;;7.20;99.90;;;;;;4999454;28;20038;-76
2022/03/16 10:18:40;;;;;;;0.98;0.98;;;7.10;99.90;;;;;;4999094;28;20073;-76
2022/03/16 10:21:05;;;;;;;0.95;0.90;;;7.10;99.90;;;;;;4999269;28;20033;-76
2022/03/16 10:23:31;;;;;;;0.20;0.20;;;7.10;99.90;;;;;;5001205;28;20117;-76
2022/03/16 10:26:03;;;;;;;2.70;2.28;;;7.10;99.90;;;;;;4999539;28;20814;-76
2022/03/16 10:28:30;;;;;;;0.38;0.38;;;7.10;99.90;;;;;;5000684;28;20458;-77
2022/03/16 10:31:02;;;;;;;1.02;0.70;;;7.30;99.90;;;;;;5001582;28;20545;-77
2022/03/16 10:33:58;;;;;;;0.43;0.43;;;7.30;99.90;;;;;;5000363;28;20088;-76
2022/03/16 10:36:28;;;;;;;0.80;0.80;;;7.30;99.90;;;;;;4997591;28;20034;-76
2022/03/16 10:38:58;;;;;;;5.05;3.08;;;7.40;99.90;;;;;;5000846;28;20393;-76
2022/03/16 10:47:15;;;;;;;7.68;1.40;;;7.20;99.90;;;;;;5000413;28;20034;-75
2022/03/16 10:49:42;;;;;;;2.10;1.63;;;7.20;99.90;;;;;;4998795;28;20502;-75
2022/03/16 10:52:18;;;;;;;0.85;0.85;;;7.10;99.90;;;;;;5000172;28;20080;-77
2022/03/16 10:54:45;;;;;;;1.75;1.30;;;7.20;99.90;;;;;;5000468;28;20026;-74
2022/03/16 10:57:13;;;;;;;0.40;0.40;;;7.30;99.90;;;;;;4999049;28;20022;-75
2022/03/16 10:59:42;;;;;;;5.13;2.85;;;7.40;99.90;;;;;;4998570;28;20034;-77
2022/03/16 11:02:13;;;;;;;0.52;0.52;;;7.50;99.90;;;;;;4999754;28;20120;-76
2022/03/16 11:04:50;;;;;;;2.15;1.08;;;7.60;99.90;;;;;;4998639;28;20244;-74
2022/03/16 11:07:18;;;;;;;0.30;0.30;;;7.70;99.90;;;;;;4999598;28;20456;-74
2022/03/16 11:09:44;;;;;;;0.88;0.88;;;7.70;99.90;;;;;;4999177;28;20033;-75
2022/03/16 11:14:54;;;;;;;0.25;0.25;;;7.90;99.90;;;;;;5000157;28;20900;-74
2022/03/16 11:17:20;;;;;;;0.20;0.20;;;7.90;99.90;;;;;;4998243;28;20037;-75
2022/03/16 11:19:51;;;;;;;0.95;0.95;;;8.00;99.90;;;;;;5002595;28;20029;-76
2022/03/16 11:22:16;;;;;;;2.58;0.70;;;8.10;99.90;;;;;;5001877;28;20583;-74
2022/03/16 11:24:48;;;;;;;1.98;0.75;;;8.00;99.90;;;;;;5002369;28;20452;-75
2022/03/16 11:27:23;;;;;;;2.08;1.98;;;8.10;99.90;;;;;;5003457;28;20026;-75
2022/03/16 11:30:08;;;;;;;6.78;3.08;;;8.30;99.90;;;;;;5001439;28;20058;-74
2022/03/16 11:32:36;;;;;;;1.42;1.33;;;8.40;99.90;;;;;;4985813;28;20355;-74
2022/03/16 11:35:06;;;;;;;2.25;2.15;;;8.40;99.90;;;;;;5002879;28;20129;-74
2022/03/16 11:37:42;;;;;;;6.25;2.80;;;8.40;99.90;;;;;;5003181;28;20018;-74
2022/03/16 11:40:14;;;;;;;3.38;2.30;;;8.30;99.90;;;;;;5000857;28;20036;-74
2022/03/16 11:42:44;;;;;;;;;;;8.30;99.90;;;;;;5001804;28;20044;-73
2022/03/16 11:45:36;;;;;;;6.38;4.05;;;8.30;99.90;;;;;;5001947;28;20020;-74
2022/03/16 11:48:33;;;;;;;2.58;2.40;;;8.20;99.90;;;;;;5002722;28;20559;-75
2022/03/16 11:51:11;;;;;;;2.50;1.60;;;8.10;99.90;;;;;;4984609;28;20038;-75
2022/03/16 11:53:51;;;;;;;0.73;0.73;;;8.20;99.90;;;;;;5001821;28;20154;-74
2022/03/16 11:56:21;;;;;;;2.78;1.77;;;8.20;99.90;;;;;;5002293;28;20083;-75
2022/03/16 11:59:02;;;;;;;3.80;2.55;;;8.20;99.90;;;;;;5003538;28;20047;-75
2022/03/16 12:01:38;;;;;;;0.70;0.68;;;8.20;99.90;;;;;;5017263;28;20057;-75
2022/03/16 12:04:13;;;;;;;1.05;1.05;;;8.10;99.90;;;;;;5002749;28;20030;-75
2022/03/16 12:06:48;;;;;;;3.80;3.50;;;8.00;99.90;;;;;;5002723;28;20040;-74
2022/03/16 12:09:20;;;;;;;2.90;2.75;;;8.00;99.90;;;;;;4985448;28;20033;-75
2022/03/16 12:15:12;;;;;;;2.00;1.88;;;7.90;99.90;;;;;;4999007;28;19913;-75
2022/03/16 12:17:40;;;;;;;1.75;1.05;;;7.80;99.90;;;;;;4984235;28;20037;-74
2022/03/16 12:20:28;;;;;;;2.65;1.67;;;7.80;99.90;;;;;;5001838;28;20038;-76
2022/03/16 12:22:56;;;;;;;2.10;1.98;;;7.90;99.90;;;;;;5001066;28;20053;-74
2022/03/16 12:25:27;;;;;;;7.85;5.65;;;7.80;99.90;;;;;;5001139;28;20494;-75
2022/03/16 12:30:59;;;;;;;1.05;1.05;;;7.90;99.90;;;;;;5001696;28;20087;-75
2022/03/16 12:33:52;;;;;;;2.83;1.67;;;7.80;99.90;;;;;;5001806;28;20509;-74
2022/03/16 12:36:26;;;;;;;1.65;0.95;;;7.70;99.90;;;;;;5000614;28;20044;-76
2022/03/16 12:38:55;;;;;;;1.23;1.13;;;7.70;99.90;;;;;;5002366;28;20042;-75
2022/03/16 12:44:11;;;;;;;11.52;5.47;;;7.50;99.90;;;;;;5002072;28;20133;-75
2022/03/16 12:46:49;;;;;;;8.45;4.97;;;7.60;99.90;;;;;;5000712;28;20053;-75
2022/03/16 12:49:17;;;;;;;1.67;1.58;;;7.60;99.90;;;;;;5000734;28;20037;-74
2022/03/16 12:51:49;;;;;;;0.30;0.30;;;7.50;99.90;;;;;;4984034;28;20069;-77
2022/03/16 12:54:26;;;;;;;4.65;3.17;;;7.60;99.90;;;;;;5002123;28;20037;-73
2022/03/16 12:56:55;;;;;;;1.65;1.52;;;7.40;99.90;;;;;;5001471;28;20041;-75
2022/03/16 12:59:52;;;;;;;1.75;1.65;;;7.50;99.90;;;;;;5000267;28;20452;-74
2022/03/16 13:02:27;;;;;;;4.75;2.70;;;7.50;99.90;;;;;;4999514;28;20136;-74
2022/03/16 13:04:56;;;;;;;0.90;0.90;;;7.60;99.90;;;;;;5002169;28;20573;-74
2022/03/16 13:07:24;;;;;;;7.18;2.10;;;7.40;99.90;;;;;;5001258;28;20169;-74
2022/03/16 13:09:50;;;;;;;3.83;3.50;;;7.40;99.90;;;;;;5001484;28;20034;-75
2022/03/16 13:12:16;;;;;;;2.28;1.23;;;7.40;99.90;;;;;;5001416;28;20538;-76
2022/03/16 13:14:46;;;;;;;2.08;1.50;;;7.50;99.90;;;;;;4983889;28;20034;-75
2022/03/16 13:17:13;;;;;;;1.80;1.65;;;7.60;99.90;;;;;;4999874;28;20084;-75
2022/03/16 13:19:40;;;;;;;10.40;6.35;;;7.70;99.90;;;;;;4983317;28;20030;-75